Time;durP1;ratioP1;P1;durP2;ratioP2;P2;SDS_P1;SDS_P2;PMS_P1;PMS_P2;Temp;Humidity;BMP_temperature;BMP_pressure;BME280_temperature;BME280_humidity;BME280_pressure;Samples;Min_cycle;Max_cycle;Signal;HPM_P1;HPM_P2
2023/06/14 00:02:27;;;;;;;9.18;5.53;;;28.30;99.90;;;;;;1849725;75;21167;-82
2023/06/14 00:05:00;;;;;;;10.23;4.83;;;28.30;99.90;;;;;;1851191;74;21141;-81
2023/06/14 00:07:48;;;;;;;6.15;4.37;;;28.30;99.90;;;;;;1847138;75;21236;-82
2023/06/14 00:10:15;;;;;;;7.83;4.65;;;28.30;99.90;;;;;;1885562;74;21265;-81
2023/06/14 00:12:47;;;;;;;6.53;4.95;;;28.30;99.90;;;;;;1871144;74;21123;-82
2023/06/14 00:15:20;;;;;;;11.63;4.90;;;28.40;99.90;;;;;;1884212;74;21164;-81
2023/06/14 00:17:52;;;;;;;9.40;5.67;;;28.40;99.90;;;;;;1880728;74;21111;-81
2023/06/14 00:20:24;;;;;;;10.28;5.33;;;28.40;99.90;;;;;;1854321;75;21081;-81
2023/06/14 00:22:57;;;;;;;10.65;5.33;;;28.50;99.90;;;;;;1882790;74;21217;-78
2023/06/14 00:25:29;;;;;;;8.35;4.87;;;28.50;99.90;;;;;;1891245;74;21169;-81
2023/06/14 00:28:03;;;;;;;8.73;4.83;;;28.60;99.90;;;;;;1884736;74;21320;-79
2023/06/14 00:30:36;;;;;;;17.73;6.08;;;28.60;99.90;;;;;;1892934;74;21175;-76
2023/06/14 00:33:08;;;;;;;9.93;4.80;;;28.60;99.90;;;;;;1891027;74;21064;-77
2023/06/14 00:35:40;;;;;;;15.53;6.78;;;28.60;99.90;;;;;;1908292;74;21584;-78
2023/06/14 00:38:12;;;;;;;14.05;6.10;;;28.70;99.90;;;;;;1888652;74;21170;-75
2023/06/14 00:40:46;;;;;;;11.60;5.37;;;28.70;99.90;;;;;;1889485;74;21054;-79
2023/06/14 00:43:19;;;;;;;9.33;5.08;;;28.80;99.90;;;;;;1886588;74;21139;-80
2023/06/14 00:45:51;;;;;;;11.18;5.25;;;28.80;99.90;;;;;;1874510;76;21096;-79
2023/06/14 00:48:22;;;;;;;9.70;4.97;;;28.80;99.90;;;;;;1883673;75;21165;-79
2023/06/14 00:50:55;;;;;;;9.60;4.67;;;28.80;99.90;;;;;;1860125;75;21052;-77
2023/06/14 00:53:27;;;;;;;14.25;5.28;;;28.80;99.90;;;;;;1858768;75;21183;-75
2023/06/14 00:55:59;;;;;;;12.45;4.78;;;28.80;99.90;;;;;;1852614;76;21148;-69
2023/06/14 00:58:32;;;;;;;8.85;5.08;;;28.80;99.90;;;;;;1815814;77;21488;-71
2023/06/14 01:01:04;;;;;;;32.40;6.40;;;28.90;99.90;;;;;;1889090;74;21115;-70
2023/06/14 01:03:36;;;;;;;51.92;7.30;;;28.90;99.90;;;;;;1890125;74;21522;-70
2023/06/14 01:06:14;;;;;;;55.67;7.95;;;28.90;99.90;;;;;;1894794;74;21093;-69
2023/06/14 01:09:16;;;;;;;19.40;5.42;;;29.00;99.90;;;;;;1889371;74;21526;-71
2023/06/14 01:11:54;;;;;;;24.18;5.67;;;29.00;99.90;;;;;;1896829;74;22383;-69
2023/06/14 01:14:25;;;;;;;;;;;29.00;99.90;;;;;;1889461;74;21209;-66
2023/06/14 01:17:00;;;;;;;15.90;5.15;;;29.00;99.90;;;;;;1889760;74;20116;-68
2023/06/14 01:19:33;;;;;;;21.87;6.40;;;29.00;99.90;;;;;;1901084;73;21170;-70
2023/06/14 01:22:04;;;;;;;26.17;6.78;;;29.00;99.90;;;;;;1889603;74;21130;-69
2023/06/14 01:24:39;;;;;;;16.05;7.10;;;29.10;99.90;;;;;;1878003;74;21446;-68
2023/06/14 01:27:12;;;;;;;18.07;5.42;;;29.10;99.90;;;;;;1891561;74;21460;-69
2023/06/14 01:29:45;;;;;;;9.70;4.15;;;29.10;99.90;;;;;;1886364;74;21143;-69
2023/06/14 01:32:18;;;;;;;11.83;4.35;;;29.20;99.90;;;;;;1916925;74;21584;-68
2023/06/14 01:34:51;;;;;;;17.85;5.67;;;29.20;99.90;;;;;;1891440;74;21107;-68
2023/06/14 01:37:24;;;;;;;14.30;4.97;;;29.30;99.90;;;;;;1881462;74;21125;-69
2023/06/14 01:39:55;;;;;;;24.52;5.67;;;29.40;99.90;;;;;;1885874;74;21132;-69
2023/06/14 01:42:28;;;;;;;15.58;5.33;;;29.50;99.90;;;;;;1880946;74;21120;-68
2023/06/14 01:45:00;;;;;;;14.23;5.00;;;29.50;99.90;;;;;;1894708;74;21115;-69
2023/06/14 01:47:34;;;;;;;20.40;6.25;;;29.60;99.90;;;;;;1890303;74;21171;-70
2023/06/14 01:50:06;;;;;;;17.37;6.20;;;29.70;99.90;;;;;;1881891;74;21198;-68
2023/06/14 01:52:39;;;;;;;13.58;6.10;;;29.70;99.90;;;;;;1887869;74;21205;-69
2023/06/14 01:55:10;;;;;;;27.10;7.20;;;29.90;99.90;;;;;;1895921;74;21095;-70
2023/06/14 01:57:41;;;;;;;27.07;8.93;;;29.90;99.60;;;;;;1901838;74;21490;-71
2023/06/14 02:00:18;;;;;;;67.40;13.93;;;30.00;99.60;;;;;;1889272;74;21147;-69
2023/06/14 02:02:50;;;;;;;30.52;8.35;;;30.00;99.40;;;;;;1876008;74;21915;-68
2023/06/14 02:05:21;;;;;;;42.25;6.45;;;30.00;99.00;;;;;;1890560;74;21148;-70
2023/06/14 02:07:58;;;;;;;41.20;10.98;;;30.00;99.20;;;;;;1878392;74;21204;-71
2023/06/14 02:10:25;;;;;;;32.95;8.35;;;30.00;99.30;;;;;;1883362;74;21638;-67
2023/06/14 02:12:56;;;;;;;26.75;7.10;;;30.00;99.20;;;;;;1884216;74;21428;-69
2023/06/14 02:15:33;;;;;;;10.65;5.30;;;30.10;99.00;;;;;;1873512;74;21152;-69
2023/06/14 02:18:05;;;;;;;13.08;5.12;;;30.10;98.80;;;;;;1853232;76;21120;-68
2023/06/14 02:20:36;;;;;;;14.23;6.90;;;30.10;99.00;;;;;;1891742;74;21163;-68
2023/06/14 02:23:07;;;;;;;19.07;7.00;;;30.10;99.10;;;;;;1857449;74;21110;-68
2023/06/14 02:25:40;;;;;;;50.05;7.35;;;30.10;99.10;;;;;;1887272;74;21215;-71
2023/06/14 02:28:12;;;;;;;30.35;6.83;;;30.10;98.80;;;;;;1884852;74;21103;-68
2023/06/14 02:30:45;;;;;;;26.93;7.05;;;30.10;98.70;;;;;;1891390;74;21092;-70
2023/06/14 02:33:17;;;;;;;38.67;9.05;;;30.00;98.50;;;;;;1881112;74;21291;-69
2023/06/14 02:35:49;;;;;;;22.55;7.28;;;30.10;98.80;;;;;;1863637;74;21116;-71
2023/06/14 02:38:20;;;;;;;24.05;7.60;;;30.00;99.20;;;;;;1885486;74;21119;-69
2023/06/14 02:40:52;;;;;;;48.98;7.00;;;30.00;98.70;;;;;;1880885;74;21096;-69
2023/06/14 02:43:24;;;;;;;19.50;5.55;;;30.00;98.60;;;;;;1867942;74;21085;-69
2023/06/14 02:45:55;;;;;;;33.45;8.83;;;30.00;98.40;;;;;;1882285;74;21080;-69
2023/06/14 02:48:26;;;;;;;45.40;9.88;;;30.00;98.50;;;;;;1886316;74;21278;-70
2023/06/14 02:50:57;;;;;;;24.52;7.20;;;30.00;98.60;;;;;;1874449;74;21117;-68
2023/06/14 02:53:28;;;;;;;23.77;7.60;;;30.00;98.60;;;;;;1879322;74;21555;-69
2023/06/14 02:56:00;;;;;;;31.40;6.67;;;30.10;98.70;;;;;;1889568;74;21197;-69
2023/06/14 02:58:33;;;;;;;19.85;6.50;;;30.10;98.60;;;;;;1853135;75;21112;-70
2023/06/14 03:01:05;;;;;;;65.55;12.10;;;30.10;98.70;;;;;;1882363;74;21124;-69
2023/06/14 03:03:36;;;;;;;21.82;7.85;;;30.30;98.70;;;;;;1885369;74;21253;-71
2023/06/14 03:06:09;;;;;;;11.80;5.35;;;30.30;98.50;;;;;;1882006;74;21115;-67
2023/06/14 03:08:40;;;;;;;39.95;7.15;;;30.50;98.40;;;;;;1881459;74;21099;-70
2023/06/14 03:11:14;;;;;;;37.58;9.00;;;30.70;98.10;;;;;;1856402;74;21167;-68
2023/06/14 03:13:46;;;;;;;26.00;7.47;;;30.80;97.90;;;;;;1853562;75;21156;-67
2023/06/14 03:16:21;;;;;;;15.83;5.53;;;30.90;97.40;;;;;;1818838;77;21184;-71
2023/06/14 03:18:52;;;;;;;34.75;8.23;;;30.90;97.30;;;;;;1886949;74;21125;-69
2023/06/14 03:21:23;;;;;;;36.33;9.00;;;30.90;97.10;;;;;;1875529;74;21160;-69
2023/06/14 03:23:57;;;;;;;26.60;8.60;;;30.80;97.20;;;;;;1875235;74;21603;-69
2023/06/14 03:26:30;;;;;;;27.70;8.40;;;30.90;97.30;;;;;;1856757;76;21234;-70
2023/06/14 03:29:01;;;;;;;8.38;5.05;;;30.90;97.30;;;;;;1822872;76;21539;-68
2023/06/14 03:31:32;;;;;;;13.68;6.28;;;31.00;97.30;;;;;;1858437;76;21150;-69
2023/06/14 03:34:03;;;;;;;10.48;5.17;;;31.00;97.20;;;;;;1872890;74;21631;-69
2023/06/14 03:36:35;;;;;;;19.73;7.12;;;31.00;97.70;;;;;;1882471;74;21131;-71
2023/06/14 03:39:06;;;;;;;11.90;4.70;;;31.10;97.30;;;;;;1896715;74;21143;-69
2023/06/14 03:41:39;;;;;;;11.65;4.90;;;31.10;96.80;;;;;;1879454;74;21569;-67
2023/06/14 03:44:10;;;;;;;23.47;6.35;;;31.10;96.40;;;;;;1879851;74;21158;-70
2023/06/14 03:46:42;;;;;;;69.62;20.80;;;31.10;96.20;;;;;;1886786;74;21134;-69
2023/06/14 03:49:13;;;;;;;57.20;12.13;;;31.10;96.40;;;;;;1892709;74;21123;-70
2023/06/14 03:51:44;;;;;;;35.68;8.23;;;31.20;96.60;;;;;;1886759;74;21678;-69
2023/06/14 03:54:17;;;;;;;28.50;7.72;;;31.20;96.20;;;;;;1912478;74;21143;-70
2023/06/14 03:56:50;;;;;;;22.98;6.95;;;31.20;96.30;;;;;;1867451;74;21154;-70
2023/06/14 03:59:21;;;;;;;22.95;7.08;;;31.30;96.20;;;;;;1872126;74;21222;-69
2023/06/14 04:01:53;;;;;;;16.80;6.40;;;31.40;95.90;;;;;;1880721;74;21213;-69
2023/06/14 04:04:28;;;;;;;24.05;6.95;;;31.50;95.70;;;;;;1865782;74;21135;-71
2023/06/14 04:06:58;;;;;;;16.35;7.00;;;31.50;95.30;;;;;;1894272;74;21145;-70
2023/06/14 04:09:31;;;;;;;23.38;7.55;;;31.50;95.20;;;;;;1883403;74;21131;-70
2023/06/14 04:12:02;;;;;;;12.60;5.22;;;31.50;95.40;;;;;;1891665;74;21448;-69
2023/06/14 04:14:33;;;;;;;8.58;4.65;;;31.50;95.60;;;;;;1898179;74;21175;-69
2023/06/14 04:17:04;;;;;;;17.02;6.17;;;31.60;95.50;;;;;;1878542;74;21143;-70
2023/06/14 04:19:36;;;;;;;16.10;5.72;;;31.60;96.10;;;;;;1880227;74;21141;-72
2023/06/14 04:22:10;;;;;;;10.88;5.22;;;31.70;95.40;;;;;;1858756;75;21213;-69
2023/06/14 04:24:42;;;;;;;24.40;5.97;;;31.70;95.40;;;;;;1880130;74;21300;-71
2023/06/14 04:27:14;;;;;;;14.73;5.45;;;31.80;95.10;;;;;;1875736;74;21043;-70
2023/06/14 04:29:49;;;;;;;36.10;6.85;;;31.90;94.90;;;;;;1884625;74;21173;-70
2023/06/14 04:32:18;;;;;;;18.50;5.97;;;32.00;95.10;;;;;;1882095;74;21077;-71
2023/06/14 04:34:53;;;;;;;16.90;5.37;;;32.10;94.80;;;;;;1890703;74;21124;-71
2023/06/14 04:37:23;;;;;;;10.32;4.87;;;32.10;94.90;;;;;;1888492;74;21122;-72
2023/06/14 04:39:55;;;;;;;27.37;7.55;;;32.10;94.50;;;;;;1853617;75;21170;-71
2023/06/14 04:42:29;;;;;;;15.50;11.45;;;32.10;94.20;;;;;;1872927;74;21112;-71
2023/06/14 04:44:59;;;;;;;17.48;6.00;;;32.10;94.30;;;;;;1886922;74;21871;-69
2023/06/14 04:47:32;;;;;;;10.23;4.97;;;32.10;94.30;;;;;;1888561;74;21568;-71
2023/06/14 04:50:06;;;;;;;10.60;5.17;;;32.00;94.60;;;;;;1852836;75;21726;-71
2023/06/14 04:52:38;;;;;;;13.80;5.92;;;32.00;94.10;;;;;;1819961;78;21084;-72
2023/06/14 04:55:11;;;;;;;17.17;4.90;;;32.00;94.40;;;;;;1854474;75;21115;-70
2023/06/14 04:57:44;;;;;;;15.23;5.40;;;31.90;94.20;;;;;;1867332;75;21189;-70
2023/06/14 05:00:16;;;;;;;14.75;6.50;;;31.90;94.30;;;;;;1873235;75;21185;-73
2023/06/14 05:02:49;;;;;;;7.83;4.33;;;31.90;94.30;;;;;;1860568;74;21156;-72
2023/06/14 05:05:20;;;;;;;9.65;4.60;;;31.90;94.20;;;;;;1850675;76;21569;-71
2023/06/14 05:07:53;;;;;;;6.72;4.25;;;31.90;93.80;;;;;;1843648;76;21221;-72
2023/06/14 05:10:25;;;;;;;12.98;4.90;;;31.90;94.20;;;;;;1856730;74;21593;-71
2023/06/14 05:12:57;;;;;;;7.92;4.28;;;32.00;94.40;;;;;;1881900;74;21131;-71
2023/06/14 05:15:29;;;;;;;10.35;5.22;;;32.00;94.20;;;;;;1886913;74;21185;-68
2023/06/14 05:18:00;;;;;;;7.53;4.42;;;32.00;93.90;;;;;;1894148;74;21165;-68
2023/06/14 05:20:31;;;;;;;9.83;4.92;;;32.10;93.70;;;;;;1877811;74;21125;-68
2023/06/14 05:23:04;;;;;;;8.15;4.78;;;32.10;93.40;;;;;;1834547;76;21704;-69
2023/06/14 05:25:35;;;;;;;8.20;4.85;;;32.20;93.20;;;;;;1803920;76;21311;-70
2023/06/14 05:28:07;;;;;;;8.93;4.95;;;32.30;93.60;;;;;;1856117;76;21222;-70
2023/06/14 05:30:47;;;;;;;9.80;4.78;;;32.40;93.10;;;;;;1850980;77;21151;-70
2023/06/14 05:33:18;;;;;;;7.80;4.62;;;32.40;93.20;;;;;;1891301;75;21457;-71
2023/06/14 05:35:49;;;;;;;9.23;4.37;;;32.40;93.20;;;;;;1897389;74;21601;-70
2023/06/14 05:38:22;;;;;;;9.05;3.90;;;32.30;93.00;;;;;;1890694;74;21123;-69
2023/06/14 05:40:54;;;;;;;7.28;4.30;;;32.30;93.20;;;;;;1880280;74;21124;-71
2023/06/14 05:43:26;;;;;;;11.40;4.78;;;32.30;93.20;;;;;;1876297;74;21183;-68
2023/06/14 05:45:57;;;;;;;7.47;4.55;;;32.30;93.80;;;;;;1899038;74;21111;-72
2023/06/14 05:48:29;;;;;;;9.20;3.98;;;32.40;93.30;;;;;;1883064;74;21611;-71
2023/06/14 05:51:02;;;;;;;9.08;4.20;;;32.40;92.60;;;;;;1818415;77;21783;-69
2023/06/14 05:53:38;;;;;;;6.67;3.95;;;32.40;92.70;;;;;;1882226;75;21198;-69
2023/06/14 05:56:11;;;;;;;16.37;5.20;;;32.50;92.60;;;;;;1888469;74;21140;-70
2023/06/14 05:58:46;;;;;;;9.43;4.33;;;32.50;92.70;;;;;;1894595;74;21158;-70
2023/06/14 06:01:17;;;;;;;11.05;5.42;;;32.60;92.70;;;;;;1862394;76;21060;-70
2023/06/14 06:03:50;;;;;;;11.65;4.50;;;32.60;92.80;;;;;;1815506;77;21242;-70
2023/06/14 06:06:21;;;;;;;14.45;4.83;;;32.60;92.60;;;;;;1880716;74;21119;-70
2023/06/14 06:08:53;;;;;;;30.15;11.18;;;32.50;92.60;;;;;;1890062;74;21375;-68
2023/06/14 06:11:24;;;;;;;27.42;8.33;;;32.40;92.70;;;;;;1879527;74;21196;-71
2023/06/14 06:13:58;;;;;;;31.65;8.25;;;32.40;93.00;;;;;;1861392;75;21652;-69
2023/06/14 06:16:30;;;;;;;18.80;6.20;;;32.40;93.30;;;;;;1866421;75;21057;-69
2023/06/14 06:19:01;;;;;;;10.78;5.10;;;32.40;93.00;;;;;;1884383;74;21217;-69
2023/06/14 06:21:32;;;;;;;14.28;5.15;;;32.30;92.50;;;;;;1895927;74;21115;-70
2023/06/14 06:24:06;;;;;;;10.90;5.20;;;32.30;92.90;;;;;;1877643;75;21069;-69
2023/06/14 06:26:39;;;;;;;14.68;5.05;;;32.30;93.00;;;;;;1870799;74;21163;-71
2023/06/14 06:29:15;;;;;;;10.40;5.22;;;32.30;93.00;;;;;;1875907;76;21147;-71
2023/06/14 06:31:46;;;;;;;22.40;6.20;;;32.30;93.20;;;;;;1871924;74;21174;-68
2023/06/14 06:34:18;;;;;;;26.68;6.08;;;32.30;93.10;;;;;;1882854;74;21211;-71
2023/06/14 06:36:51;;;;;;;24.35;6.30;;;32.30;92.60;;;;;;1871836;75;21123;-70
2023/06/14 06:39:23;;;;;;;33.48;8.83;;;32.30;92.50;;;;;;1877251;74;21577;-72
2023/06/14 06:41:56;;;;;;;24.02;7.17;;;32.30;92.70;;;;;;1888064;74;21110;-70
2023/06/14 06:44:29;;;;;;;10.90;5.40;;;32.30;92.80;;;;;;1874836;74;21087;-71
2023/06/14 06:47:02;;;;;;;15.32;5.17;;;32.20;92.50;;;;;;1876256;74;21087;-70
2023/06/14 06:49:33;;;;;;;22.80;7.03;;;32.20;92.50;;;;;;1858342;74;21115;-69
2023/06/14 06:52:06;;;;;;;7.70;5.50;;;32.30;92.80;;;;;;1883302;74;21176;-68
2023/06/14 06:54:38;;;;;;;8.30;5.12;;;32.30;93.00;;;;;;1871395;75;21715;-69
2023/06/14 06:57:11;;;;;;;15.80;6.08;;;32.50;92.80;;;;;;1879837;75;21104;-69
2023/06/14 06:59:43;;;;;;;18.52;5.70;;;32.60;93.10;;;;;;1882451;74;21119;-71
2023/06/14 07:02:15;;;;;;;12.33;5.83;;;32.70;93.20;;;;;;1881025;74;21127;-71
2023/06/14 07:04:47;;;;;;;10.45;5.17;;;32.80;93.10;;;;;;1868829;74;21158;-68
2023/06/14 07:07:19;;;;;;;20.32;7.85;;;32.80;92.90;;;;;;1878913;74;21210;-71
2023/06/14 07:09:52;;;;;;;8.35;4.75;;;32.90;92.90;;;;;;1884701;74;22265;-70
2023/06/14 07:12:24;;;;;;;42.70;9.60;;;32.90;92.90;;;;;;1880354;75;21125;-69
2023/06/14 07:14:55;;;;;;;27.00;7.35;;;33.00;93.00;;;;;;1885194;74;21617;-67
2023/06/14 07:17:27;;;;;;;23.90;8.20;;;33.00;92.50;;;;;;1878741;74;21144;-70
2023/06/14 07:19:59;;;;;;;16.65;5.85;;;33.00;92.70;;;;;;1885025;74;21127;-70
2023/06/14 07:22:34;;;;;;;20.53;5.33;;;33.00;92.60;;;;;;1878355;74;21136;-68
2023/06/14 07:25:05;;;;;;;27.70;7.25;;;33.00;92.00;;;;;;1884876;74;21187;-68
2023/06/14 07:27:40;;;;;;;23.35;6.42;;;33.00;92.00;;;;;;1879170;74;21108;-69
2023/06/14 07:30:13;;;;;;;20.30;6.50;;;33.00;92.10;;;;;;1881372;74;21144;-69
2023/06/14 07:32:46;;;;;;;19.73;5.80;;;33.00;92.10;;;;;;1888868;74;21151;-72
2023/06/14 07:35:17;;;;;;;8.15;5.25;;;33.00;91.80;;;;;;1891142;74;21175;-69
2023/06/14 07:37:49;;;;;;;19.40;5.47;;;32.80;91.70;;;;;;1850524;75;21188;-70
2023/06/14 07:40:21;;;;;;;15.45;5.70;;;32.80;92.00;;;;;;1894325;74;21068;-70
2023/06/14 07:42:54;;;;;;;22.93;7.12;;;32.70;92.10;;;;;;1881644;74;21045;-69
2023/06/14 07:45:25;;;;;;;21.70;8.10;;;32.70;92.10;;;;;;1886615;74;21201;-71
2023/06/14 07:47:57;;;;;;;15.30;6.67;;;32.70;92.20;;;;;;1888904;74;21618;-71
2023/06/14 07:50:30;;;;;;;17.75;5.87;;;32.70;92.10;;;;;;1882894;74;21098;-70
2023/06/14 07:53:01;;;;;;;17.27;6.42;;;32.70;92.20;;;;;;1880121;74;21168;-71
2023/06/14 07:55:33;;;;;;;13.48;6.10;;;32.70;92.10;;;;;;1881751;74;21640;-70
2023/06/14 07:58:26;;;;;;;28.92;7.87;;;32.70;92.10;;;;;;1822278;77;21564;-70
2023/06/14 08:01:03;;;;;;;;;;;32.60;92.40;;;;;;1874189;74;21083;-68
2023/06/14 08:03:34;;;;;;;30.05;7.53;;;32.60;92.70;;;;;;1856650;74;20155;-70
2023/06/14 08:06:06;;;;;;;22.65;10.50;;;32.60;92.50;;;;;;1828220;76;21163;-69
2023/06/14 08:08:37;;;;;;;33.53;9.00;;;32.60;92.60;;;;;;1837539;77;21529;-69
2023/06/14 08:11:09;;;;;;;49.55;10.72;;;32.60;92.70;;;;;;1806187;77;21204;-69
2023/06/14 08:13:40;;;;;;;14.38;5.50;;;32.60;92.80;;;;;;1888094;75;21098;-69
2023/06/14 08:16:11;;;;;;;12.70;4.75;;;32.60;92.40;;;;;;1876954;74;21186;-71
2023/06/14 08:18:43;;;;;;;23.20;6.75;;;32.50;92.20;;;;;;1869072;75;21155;-71
2023/06/14 08:21:15;;;;;;;22.27;6.37;;;32.50;92.40;;;;;;1870080;75;21060;-69
2023/06/14 08:23:47;;;;;;;20.32;5.55;;;32.50;92.20;;;;;;1864867;74;21649;-71
2023/06/14 08:26:41;;;;;;;31.75;7.80;;;32.40;92.30;;;;;;1858045;75;21184;-70
2023/06/14 08:29:13;;;;;;;17.82;5.80;;;32.30;92.30;;;;;;1965375;71;21076;-74
2023/06/14 08:31:44;;;;;;;39.25;8.93;;;32.40;92.20;;;;;;1966885;71;21060;-70
2023/06/14 08:34:16;;;;;;;33.38;10.10;;;32.40;92.30;;;;;;1950042;71;21056;-71
2023/06/14 08:36:47;;;;;;;19.25;6.78;;;32.40;92.40;;;;;;1970055;71;21200;-70
2023/06/14 08:39:18;;;;;;;23.40;6.40;;;32.40;92.30;;;;;;1950078;72;21130;-72
2023/06/14 08:41:51;;;;;;;16.12;6.10;;;32.40;91.90;;;;;;1890385;75;21530;-69
2023/06/14 08:44:23;;;;;;;28.95;8.18;;;32.40;92.20;;;;;;1886135;75;21150;-71
2023/06/14 08:47:00;;;;;;;15.28;6.15;;;32.40;92.30;;;;;;1901630;73;21560;-71
2023/06/14 08:49:32;;;;;;;18.07;5.92;;;32.40;92.10;;;;;;1953855;72;21117;-70
2023/06/14 08:52:06;;;;;;;22.52;6.60;;;32.40;92.10;;;;;;1952894;71;21169;-69
2023/06/14 08:54:43;;;;;;;18.85;5.65;;;32.30;91.50;;;;;;1960726;72;21520;-70
2023/06/14 08:57:15;;;;;;;21.12;6.67;;;32.30;91.40;;;;;;1964970;72;21130;-69
2023/06/14 08:59:52;;;;;;;45.08;9.78;;;32.30;91.60;;;;;;1947882;73;21604;-70
2023/06/14 09:02:25;;;;;;;22.77;7.72;;;32.30;91.80;;;;;;1956473;71;21075;-70
2023/06/14 09:04:59;;;;;;;16.45;6.15;;;32.30;91.90;;;;;;1951850;73;21086;-71
2023/06/14 09:07:30;;;;;;;17.23;6.10;;;32.30;91.80;;;;;;1953276;72;21245;-68
2023/06/14 09:10:16;;;;;;;14.03;5.45;;;32.30;91.80;;;;;;1946929;73;21083;-72
2023/06/14 09:12:47;;;;;;;20.45;9.10;;;32.20;91.80;;;;;;1950458;71;21059;-70
2023/06/14 09:15:18;;;;;;;14.65;5.30;;;32.20;92.20;;;;;;1942803;72;21855;-69
2023/06/14 09:17:50;;;;;;;43.05;10.40;;;32.20;92.10;;;;;;1945374;71;22257;-70
2023/06/14 09:20:21;;;;;;;24.52;6.72;;;32.10;92.40;;;;;;1919800;73;21130;-69
2023/06/14 09:22:54;;;;;;;16.62;5.92;;;32.20;92.50;;;;;;1874635;75;21412;-70
2023/06/14 09:25:27;;;;;;;11.20;5.37;;;32.20;92.50;;;;;;1863153;74;21141;-70
2023/06/14 09:27:59;;;;;;;19.20;7.47;;;32.20;92.50;;;;;;1937671;72;21038;-71
2023/06/14 09:30:31;;;;;;;22.73;7.12;;;32.20;92.70;;;;;;1944494;71;21142;-69
2023/06/14 09:33:03;;;;;;;14.10;7.00;;;32.20;92.60;;;;;;1921261;73;21085;-70
2023/06/14 09:35:35;;;;;;;16.85;6.47;;;32.20;92.60;;;;;;1909814;73;21184;-71
2023/06/14 09:38:07;;;;;;;95.20;15.48;;;32.20;92.70;;;;;;1921857;71;21136;-76
2023/06/14 09:40:38;;;;;;;25.60;8.38;;;32.20;93.00;;;;;;1956767;71;21050;-77
2023/06/14 09:43:11;;;;;;;20.43;6.00;;;32.20;92.90;;;;;;1920759;71;22080;-75
2023/06/14 09:45:48;;;;;;;27.45;7.60;;;32.20;93.10;;;;;;1933834;71;21157;-79
2023/06/14 09:48:19;;;;;;;23.70;6.50;;;32.20;93.10;;;;;;1958227;72;21145;-81
2023/06/14 09:50:53;;;;;;;13.08;5.75;;;32.20;92.80;;;;;;1882431;75;21036;-81
2023/06/14 09:53:27;;;;;;;25.52;7.80;;;32.20;92.90;;;;;;1910982;73;21069;-80
2023/06/14 09:56:00;;;;;;;8.93;4.92;;;32.20;93.00;;;;;;1866050;75;21124;-80
2023/06/14 09:58:34;;;;;;;13.13;6.22;;;32.20;92.70;;;;;;1913644;73;21111;-81
2023/06/14 10:01:13;;;;;;;17.32;8.25;;;32.20;92.90;;;;;;1899778;73;21539;-80
2023/06/14 10:03:47;;;;;;;16.07;5.90;;;32.20;93.20;;;;;;1840933;78;21134;-81
2023/06/14 10:06:24;;;;;;;17.48;6.30;;;32.20;93.10;;;;;;1873201;75;21145;-81
2023/06/14 10:08:59;;;;;;;13.08;6.20;;;32.20;93.10;;;;;;1873234;74;21132;-81
2023/06/14 10:11:31;;;;;;;9.78;5.72;;;32.20;93.50;;;;;;1867887;76;21121;-83
2023/06/14 10:14:03;;;;;;;14.80;6.37;;;32.20;93.20;;;;;;1850324;74;21097;-82
2023/06/14 10:16:37;;;;;;;16.90;7.58;;;32.20;92.90;;;;;;1953860;71;21121;-69
2023/06/14 10:19:28;;;;;;;15.85;7.67;;;32.10;93.00;;;;;;1927704;72;21149;-70
2023/06/14 10:22:11;;;;;;;18.48;6.35;;;32.10;93.10;;;;;;1908842;73;21136;-70
2023/06/14 10:24:50;;;;;;;20.32;7.87;;;32.10;93.20;;;;;;1928163;72;21113;-69
2023/06/14 10:27:25;;;;;;;21.10;8.38;;;32.10;93.20;;;;;;1930535;74;21074;-70
2023/06/14 10:30:03;;;;;;;26.33;7.62;;;32.00;93.20;;;;;;1928119;72;21198;-71
2023/06/14 10:32:33;;;;;;;26.20;6.70;;;32.00;93.20;;;;;;1936343;73;21137;-70
2023/06/14 10:35:16;;;;;;;18.73;6.35;;;32.00;93.10;;;;;;1937317;72;21553;-71
2023/06/14 10:37:48;;;;;;;11.10;5.97;;;32.00;93.00;;;;;;1936323;72;21155;-70
2023/06/14 10:40:37;;;;;;;15.63;7.00;;;31.90;93.20;;;;;;1903465;73;21113;-69
2023/06/14 10:43:24;;;;;;;21.25;8.60;;;31.90;93.20;;;;;;1880171;74;21048;-72
2023/06/14 10:46:17;;;;;;;20.23;7.65;;;31.90;93.40;;;;;;1893683;75;21121;-70
2023/06/14 10:48:48;;;;;;;15.60;6.12;;;31.80;93.30;;;;;;1886232;74;21169;-69
2023/06/14 10:51:20;;;;;;;12.93;5.42;;;31.80;93.20;;;;;;1857326;74;21165;-71
2023/06/14 10:53:52;;;;;;;8.35;5.42;;;31.80;93.10;;;;;;1901153;73;21220;-71
2023/06/14 10:56:34;;;;;;;9.90;4.45;;;31.80;93.30;;;;;;1854657;75;21124;-71
2023/06/14 10:59:05;;;;;;;12.65;5.03;;;31.70;93.30;;;;;;1871243;75;21169;-70
2023/06/14 11:01:39;;;;;;;31.60;11.65;;;31.70;93.40;;;;;;1899869;75;21115;-69
2023/06/14 11:04:12;;;;;;;15.95;5.65;;;31.60;93.60;;;;;;1897880;74;21108;-69
2023/06/14 11:06:53;;;;;;;14.95;6.40;;;31.60;93.60;;;;;;1895063;75;21594;-69
2023/06/14 11:09:37;;;;;;;17.65;8.13;;;31.50;93.70;;;;;;1913035;73;21100;-69
2023/06/14 11:12:11;;;;;;;17.00;5.83;;;31.50;93.90;;;;;;1900759;73;21612;-69
2023/06/14 11:14:42;;;;;;;26.85;7.15;;;31.50;93.90;;;;;;1889537;74;21135;-69
2023/06/14 11:17:14;;;;;;;19.42;7.33;;;31.50;94.00;;;;;;1979252;71;21092;-70
2023/06/14 11:19:46;;;;;;;16.85;6.62;;;31.50;94.10;;;;;;1955128;71;21211;-70
2023/06/14 11:22:18;;;;;;;22.22;7.42;;;31.50;94.20;;;;;;1894732;73;21102;-69
2023/06/14 11:24:50;;;;;;;21.33;10.32;;;31.50;94.20;;;;;;1932182;71;21151;-70
2023/06/14 11:27:22;;;;;;;29.63;11.73;;;31.50;94.40;;;;;;1939557;72;21218;-70
2023/06/14 11:29:54;;;;;;;35.10;13.20;;;31.50;94.40;;;;;;1952458;71;21113;-69
2023/06/14 11:32:27;;;;;;;12.98;4.80;;;31.50;94.50;;;;;;1888210;74;21221;-69
2023/06/14 11:35:00;;;;;;;12.53;4.70;;;31.40;94.40;;;;;;1924008;73;21201;-69
2023/06/14 11:37:35;;;;;;;14.30;5.78;;;31.40;94.50;;;;;;1913956;73;21662;-68
2023/06/14 11:40:09;;;;;;;;;;;31.40;94.70;;;;;;1952903;72;21120;-71
2023/06/14 11:42:42;;;;;;;13.68;5.03;;;31.30;94.60;;;;;;1925070;73;20308;-70
2023/06/14 11:45:14;;;;;;;13.58;5.58;;;31.30;94.70;;;;;;1932609;74;21130;-69
2023/06/14 11:47:46;;;;;;;13.30;5.50;;;31.30;94.80;;;;;;1926963;73;21120;-70
2023/06/14 11:50:19;;;;;;;19.75;5.62;;;31.30;94.80;;;;;;1935897;73;21508;-70
2023/06/14 11:53:06;;;;;;;9.08;4.62;;;31.30;94.50;;;;;;1961945;71;21133;-69
2023/06/14 11:55:35;;;;;;;14.85;5.40;;;31.30;94.90;;;;;;1962866;71;22347;-70
2023/06/14 11:58:06;;;;;;;6.03;3.87;;;31.30;95.00;;;;;;1946470;71;21123;-70
2023/06/14 12:00:38;;;;;;;9.18;4.90;;;31.20;95.00;;;;;;1944237;71;21139;-69
2023/06/14 12:03:10;;;;;;;28.83;6.47;;;31.20;95.10;;;;;;1958616;71;21099;-70
2023/06/14 12:05:43;;;;;;;9.50;4.83;;;31.20;95.20;;;;;;1953432;72;21162;-69
2023/06/14 12:08:17;;;;;;;10.48;5.92;;;31.20;95.20;;;;;;1953726;72;21158;-69
2023/06/14 12:10:49;;;;;;;13.13;5.72;;;31.20;95.40;;;;;;1961509;71;21635;-68
2023/06/14 12:13:21;;;;;;;15.28;7.00;;;31.10;95.40;;;;;;1955406;71;21060;-71
2023/06/14 12:15:58;;;;;;;17.60;6.33;;;31.10;95.30;;;;;;1948943;71;21098;-69
2023/06/14 12:18:37;;;;;;;12.47;5.90;;;31.10;95.40;;;;;;1883480;74;21154;-69
2023/06/14 12:21:09;;;;;;;13.15;6.35;;;31.10;95.40;;;;;;1883108;74;21125;-69
2023/06/14 12:23:51;;;;;;;12.07;6.60;;;31.10;95.40;;;;;;1954094;73;21327;-70
2023/06/14 12:26:24;;;;;;;16.57;6.80;;;31.10;95.80;;;;;;1927356;73;21142;-70
2023/06/14 12:28:59;;;;;;;35.23;7.92;;;31.00;95.60;;;;;;1924295;72;21201;-69
2023/06/14 12:31:35;;;;;;;12.88;7.37;;;31.00;95.70;;;;;;1930677;72;21168;-69
2023/06/14 12:34:08;;;;;;;13.93;7.42;;;31.00;95.70;;;;;;1931455;73;21109;-71
2023/06/14 12:36:44;;;;;;;20.05;8.30;;;31.00;95.70;;;;;;1938260;73;21064;-70
2023/06/14 12:39:14;;;;;;;15.83;7.78;;;31.00;95.70;;;;;;1939723;71;21875;-71
2023/06/14 12:41:46;;;;;;;10.85;6.65;;;31.00;95.70;;;;;;1930478;73;21510;-71
2023/06/14 12:44:19;;;;;;;11.00;6.22;;;31.00;95.80;;;;;;1867453;74;21134;-70
2023/06/14 12:46:54;;;;;;;9.13;5.67;;;31.00;95.70;;;;;;1945263;71;21111;-71
2023/06/14 12:49:28;;;;;;;9.13;6.33;;;30.90;95.70;;;;;;1921497;73;21115;-70
2023/06/14 12:52:01;;;;;;;13.00;6.25;;;30.90;95.80;;;;;;1929697;74;21170;-70
2023/06/14 12:54:33;;;;;;;10.00;6.30;;;30.90;95.80;;;;;;1902880;73;21111;-70
2023/06/14 12:57:11;;;;;;;10.72;6.45;;;30.90;95.80;;;;;;1947954;73;21246;-70
2023/06/14 12:59:43;;;;;;;11.30;6.40;;;30.90;95.90;;;;;;1942643;72;21201;-72
2023/06/14 13:05:11;;;;;;;14.58;6.60;;;30.90;95.90;;;;;;1930643;73;21068;-69
2023/06/14 13:07:43;;;;;;;12.80;6.85;;;30.90;95.90;;;;;;1929469;74;21593;-71
2023/06/14 13:10:14;;;;;;;11.15;6.25;;;30.90;95.90;;;;;;1934048;73;21177;-71
2023/06/14 13:12:58;;;;;;;11.80;7.60;;;30.90;95.90;;;;;;1923261;72;21111;-71